sensor_id;sensor_type;location;lat;lon;timestamp;P1;durP1;ratioP1;P2;durP2;ratioP2
73382;SDS011;61600;48.126;11.542;2023-08-17T00:01:40;9.43;;;4.90;;
73382;SDS011;61600;48.126;11.542;2023-08-17T00:04:06;8.05;;;4.80;;
73382;SDS011;61600;48.126;11.542;2023-08-17T00:06:32;6.82;;;4.35;;
73382;SDS011;61600;48.126;11.542;2023-08-17T00:08:58;11.40;;;4.90;;
73382;SDS011;61600;48.126;11.542;2023-08-17T00:11:24;6.65;;;4.60;;
73382;SDS011;61600;48.126;11.542;2023-08-17T00:13:50;7.38;;;4.45;;
73382;SDS011;61600;48.126;11.542;2023-08-17T00:16:16;6.10;;;4.20;;
73382;SDS011;61600;48.126;11.542;2023-08-17T00:18:42;8.90;;;4.10;;
73382;SDS011;61600;48.126;11.542;2023-08-17T00:21:08;8.13;;;4.28;;
73382;SDS011;61600;48.126;11.542;2023-08-17T00:23:34;6.43;;;4.50;;
73382;SDS011;61600;48.126;11.542;2023-08-17T00:26:00;6.50;;;4.50;;
73382;SDS011;61600;48.126;11.542;2023-08-17T00:28:26;7.05;;;4.50;;
73382;SDS011;61600;48.126;11.542;2023-08-17T00:30:52;7.43;;;4.22;;
73382;SDS011;61600;48.126;11.542;2023-08-17T00:33:18;5.68;;;4.43;;
73382;SDS011;61600;48.126;11.542;2023-08-17T00:35:44;7.25;;;4.88;;
73382;SDS011;61600;48.126;11.542;2023-08-17T00:38:11;6.95;;;4.50;;
73382;SDS011;61600;48.126;11.542;2023-08-17T00:40:37;8.10;;;4.90;;
73382;SDS011;61600;48.126;11.542;2023-08-17T00:43:04;7.80;;;4.65;;
73382;SDS011;61600;48.126;11.542;2023-08-17T00:45:30;6.93;;;4.60;;
73382;SDS011;61600;48.126;11.542;2023-08-17T00:47:57;6.72;;;4.88;;
73382;SDS011;61600;48.126;11.542;2023-08-17T00:50:24;8.25;;;4.53;;
73382;SDS011;61600;48.126;11.542;2023-08-17T00:52:53;7.25;;;4.60;;
73382;SDS011;61600;48.126;11.542;2023-08-17T00:55:21;8.88;;;4.50;;
73382;SDS011;61600;48.126;11.542;2023-08-17T00:57:47;7.65;;;4.80;;
73382;SDS011;61600;48.126;11.542;2023-08-17T01:00:13;6.22;;;4.38;;
73382;SDS011;61600;48.126;11.542;2023-08-17T01:05:06;8.50;;;4.60;;
73382;SDS011;61600;48.126;11.542;2023-08-17T01:07:32;6.32;;;4.35;;
73382;SDS011;61600;48.126;11.542;2023-08-17T01:09:58;5.72;;;4.00;;
73382;SDS011;61600;48.126;11.542;2023-08-17T01:12:31;6.93;;;4.10;;
73382;SDS011;61600;48.126;11.542;2023-08-17T01:15:13;5.93;;;4.53;;
73382;SDS011;61600;48.126;11.542;2023-08-17T01:17:43;8.95;;;4.63;;
73382;SDS011;61600;48.126;11.542;2023-08-17T01:20:19;6.47;;;4.55;;
73382;SDS011;61600;48.126;11.542;2023-08-17T01:22:49;6.85;;;4.68;;
73382;SDS011;61600;48.126;11.542;2023-08-17T01:25:17;5.90;;;4.30;;
73382;SDS011;61600;48.126;11.542;2023-08-17T01:27:43;8.32;;;5.00;;
73382;SDS011;61600;48.126;11.542;2023-08-17T01:30:13;7.20;;;4.80;;
73382;SDS011;61600;48.126;11.542;2023-08-17T01:32:44;6.57;;;4.43;;
73382;SDS011;61600;48.126;11.542;2023-08-17T01:35:21;7.03;;;4.85;;
73382;SDS011;61600;48.126;11.542;2023-08-17T01:38:07;7.90;;;4.85;;
73382;SDS011;61600;48.126;11.542;2023-08-17T01:40:36;9.23;;;4.82;;
73382;SDS011;61600;48.126;11.542;2023-08-17T01:45:28;8.23;;;4.68;;
73382;SDS011;61600;48.126;11.542;2023-08-17T01:47:55;5.75;;;4.50;;
73382;SDS011;61600;48.126;11.542;2023-08-17T01:50:21;7.00;;;4.63;;
73382;SDS011;61600;48.126;11.542;2023-08-17T01:52:47;7.55;;;4.53;;
73382;SDS011;61600;48.126;11.542;2023-08-17T01:55:13;6.32;;;4.55;;
73382;SDS011;61600;48.126;11.542;2023-08-17T01:57:38;6.88;;;4.68;;
73382;SDS011;61600;48.126;11.542;2023-08-17T02:00:04;7.50;;;4.55;;
73382;SDS011;61600;48.126;11.542;2023-08-17T02:02:31;6.82;;;4.80;;
73382;SDS011;61600;48.126;11.542;2023-08-17T02:04:57;7.93;;;4.65;;
73382;SDS011;61600;48.126;11.542;2023-08-17T02:07:22;8.50;;;5.05;;
73382;SDS011;61600;48.126;11.542;2023-08-17T02:09:48;6.68;;;4.88;;
73382;SDS011;61600;48.126;11.542;2023-08-17T02:12:14;6.32;;;4.63;;
73382;SDS011;61600;48.126;11.542;2023-08-17T02:14:39;6.20;;;4.63;;
73382;SDS011;61600;48.126;11.542;2023-08-17T02:17:05;7.05;;;4.95;;
73382;SDS011;61600;48.126;11.542;2023-08-17T02:19:31;7.03;;;4.75;;
73382;SDS011;61600;48.126;11.542;2023-08-17T02:21:58;8.75;;;4.95;;
73382;SDS011;61600;48.126;11.542;2023-08-17T02:24:24;13.32;;;5.70;;
73382;SDS011;61600;48.126;11.542;2023-08-17T02:26:50;6.72;;;4.78;;
73382;SDS011;61600;48.126;11.542;2023-08-17T02:29:16;6.55;;;4.80;;
73382;SDS011;61600;48.126;11.542;2023-08-17T02:31:42;6.43;;;5.00;;
73382;SDS011;61600;48.126;11.542;2023-08-17T02:34:07;7.45;;;4.47;;
73382;SDS011;61600;48.126;11.542;2023-08-17T02:36:34;6.72;;;4.70;;
73382;SDS011;61600;48.126;11.542;2023-08-17T02:39:00;8.88;;;4.47;;
73382;SDS011;61600;48.126;11.542;2023-08-17T02:41:26;6.07;;;4.32;;
73382;SDS011;61600;48.126;11.542;2023-08-17T02:43:51;8.07;;;4.95;;
73382;SDS011;61600;48.126;11.542;2023-08-17T02:46:17;8.32;;;4.97;;
73382;SDS011;61600;48.126;11.542;2023-08-17T02:48:43;7.65;;;4.75;;
73382;SDS011;61600;48.126;11.542;2023-08-17T02:51:09;8.60;;;4.63;;
73382;SDS011;61600;48.126;11.542;2023-08-17T02:53:34;6.70;;;4.80;;
73382;SDS011;61600;48.126;11.542;2023-08-17T02:56:00;6.93;;;4.93;;
73382;SDS011;61600;48.126;11.542;2023-08-17T02:58:26;6.57;;;5.05;;
73382;SDS011;61600;48.126;11.542;2023-08-17T03:00:52;5.90;;;4.32;;
73382;SDS011;61600;48.126;11.542;2023-08-17T03:03:19;7.50;;;4.68;;
73382;SDS011;61600;48.126;11.542;2023-08-17T03:05:44;6.28;;;4.45;;
73382;SDS011;61600;48.126;11.542;2023-08-17T03:08:10;8.07;;;4.70;;
73382;SDS011;61600;48.126;11.542;2023-08-17T03:10:37;9.00;;;5.38;;
73382;SDS011;61600;48.126;11.542;2023-08-17T03:13:03;7.50;;;4.82;;
73382;SDS011;61600;48.126;11.542;2023-08-17T03:15:29;6.65;;;4.82;;
73382;SDS011;61600;48.126;11.542;2023-08-17T03:17:56;8.52;;;4.78;;
73382;SDS011;61600;48.126;11.542;2023-08-17T03:20:21;6.25;;;4.90;;
73382;SDS011;61600;48.126;11.542;2023-08-17T03:22:47;8.15;;;4.75;;
73382;SDS011;61600;48.126;11.542;2023-08-17T03:25:13;7.03;;;5.00;;
73382;SDS011;61600;48.126;11.542;2023-08-17T03:27:38;8.15;;;4.80;;
73382;SDS011;61600;48.126;11.542;2023-08-17T03:30:04;8.05;;;4.78;;
73382;SDS011;61600;48.126;11.542;2023-08-17T03:32:31;7.90;;;5.30;;
73382;SDS011;61600;48.126;11.542;2023-08-17T03:34:56;6.15;;;4.72;;
73382;SDS011;61600;48.126;11.542;2023-08-17T03:37:22;7.78;;;5.20;;
73382;SDS011;61600;48.126;11.542;2023-08-17T03:39:48;8.35;;;5.47;;
73382;SDS011;61600;48.126;11.542;2023-08-17T03:42:13;8.65;;;5.32;;
73382;SDS011;61600;48.126;11.542;2023-08-17T03:44:39;10.07;;;5.70;;
73382;SDS011;61600;48.126;11.542;2023-08-17T03:47:05;7.78;;;4.95;;
73382;SDS011;61600;48.126;11.542;2023-08-17T03:49:31;7.78;;;5.18;;
73382;SDS011;61600;48.126;11.542;2023-08-17T03:51:56;8.05;;;5.30;;
73382;SDS011;61600;48.126;11.542;2023-08-17T03:54:22;6.45;;;4.90;;
73382;SDS011;61600;48.126;11.542;2023-08-17T03:56:48;6.93;;;4.93;;
73382;SDS011;61600;48.126;11.542;2023-08-17T03:59:14;6.43;;;4.88;;
73382;SDS011;61600;48.126;11.542;2023-08-17T04:01:40;6.65;;;4.68;;
73382;SDS011;61600;48.126;11.542;2023-08-17T04:04:06;6.90;;;4.93;;
73382;SDS011;61600;48.126;11.542;2023-08-17T04:06:32;10.85;;;5.50;;
73382;SDS011;61600;48.126;11.542;2023-08-17T04:08:57;8.02;;;5.38;;
73382;SDS011;61600;48.126;11.542;2023-08-17T04:11:23;9.60;;;5.70;;
73382;SDS011;61600;48.126;11.542;2023-08-17T04:13:49;6.57;;;4.78;;
73382;SDS011;61600;48.126;11.542;2023-08-17T04:16:14;8.15;;;5.32;;
73382;SDS011;61600;48.126;11.542;2023-08-17T04:18:40;8.93;;;4.95;;
73382;SDS011;61600;48.126;11.542;2023-08-17T04:21:06;7.28;;;5.18;;
73382;SDS011;61600;48.126;11.542;2023-08-17T04:23:32;8.05;;;5.05;;
73382;SDS011;61600;48.126;11.542;2023-08-17T04:25:57;7.00;;;4.72;;
73382;SDS011;61600;48.126;11.542;2023-08-17T04:28:23;8.57;;;5.80;;
73382;SDS011;61600;48.126;11.542;2023-08-17T04:30:49;10.50;;;5.70;;
73382;SDS011;61600;48.126;11.542;2023-08-17T04:33:15;6.95;;;5.00;;
73382;SDS011;61600;48.126;11.542;2023-08-17T04:35:40;10.30;;;5.40;;
73382;SDS011;61600;48.126;11.542;2023-08-17T04:38:06;6.68;;;4.88;;
73382;SDS011;61600;48.126;11.542;2023-08-17T04:40:32;6.85;;;5.10;;
73382;SDS011;61600;48.126;11.542;2023-08-17T04:45:24;9.40;;;5.35;;
73382;SDS011;61600;48.126;11.542;2023-08-17T04:47:49;8.00;;;5.15;;
73382;SDS011;61600;48.126;11.542;2023-08-17T04:50:15;8.38;;;5.03;;
73382;SDS011;61600;48.126;11.542;2023-08-17T04:52:42;7.60;;;5.25;;
73382;SDS011;61600;48.126;11.542;2023-08-17T04:55:09;9.20;;;5.47;;
73382;SDS011;61600;48.126;11.542;2023-08-17T04:57:35;7.90;;;5.13;;
73382;SDS011;61600;48.126;11.542;2023-08-17T05:00:01;7.13;;;4.82;;
73382;SDS011;61600;48.126;11.542;2023-08-17T05:02:27;7.70;;;5.35;;
73382;SDS011;61600;48.126;11.542;2023-08-17T05:04:53;8.52;;;5.30;;
73382;SDS011;61600;48.126;11.542;2023-08-17T05:07:18;6.85;;;5.13;;
73382;SDS011;61600;48.126;11.542;2023-08-17T05:09:44;8.35;;;5.00;;
73382;SDS011;61600;48.126;11.542;2023-08-17T05:12:10;7.10;;;4.90;;
73382;SDS011;61600;48.126;11.542;2023-08-17T05:14:36;7.43;;;4.95;;
73382;SDS011;61600;48.126;11.542;2023-08-17T05:17:02;7.80;;;5.55;;
73382;SDS011;61600;48.126;11.542;2023-08-17T05:19:28;6.78;;;4.80;;
73382;SDS011;61600;48.126;11.542;2023-08-17T05:21:54;8.45;;;5.25;;
73382;SDS011;61600;48.126;11.542;2023-08-17T05:24:19;7.85;;;4.82;;
73382;SDS011;61600;48.126;11.542;2023-08-17T05:26:45;7.82;;;5.28;;
73382;SDS011;61600;48.126;11.542;2023-08-17T05:29:11;7.63;;;5.07;;
73382;SDS011;61600;48.126;11.542;2023-08-17T05:31:37;8.38;;;5.53;;
73382;SDS011;61600;48.126;11.542;2023-08-17T05:34:03;7.43;;;4.95;;
73382;SDS011;61600;48.126;11.542;2023-08-17T05:36:29;10.05;;;5.53;;
73382;SDS011;61600;48.126;11.542;2023-08-17T05:38:54;8.40;;;5.78;;
73382;SDS011;61600;48.126;11.542;2023-08-17T05:41:20;8.07;;;5.05;;
73382;SDS011;61600;48.126;11.542;2023-08-17T05:43:46;10.45;;;5.70;;
73382;SDS011;61600;48.126;11.542;2023-08-17T05:46:13;8.70;;;5.22;;
73382;SDS011;61600;48.126;11.542;2023-08-17T05:48:40;7.47;;;5.18;;
73382;SDS011;61600;48.126;11.542;2023-08-17T05:51:06;8.80;;;5.47;;
73382;SDS011;61600;48.126;11.542;2023-08-17T05:53:32;8.57;;;5.90;;
73382;SDS011;61600;48.126;11.542;2023-08-17T05:55:58;8.98;;;5.50;;
73382;SDS011;61600;48.126;11.542;2023-08-17T05:58:23;7.97;;;5.20;;
73382;SDS011;61600;48.126;11.542;2023-08-17T06:00:49;7.30;;;5.10;;
73382;SDS011;61600;48.126;11.542;2023-08-17T06:03:15;9.93;;;6.03;;
73382;SDS011;61600;48.126;11.542;2023-08-17T06:05:41;8.48;;;5.38;;
73382;SDS011;61600;48.126;11.542;2023-08-17T06:08:07;14.35;;;8.60;;
73382;SDS011;61600;48.126;11.542;2023-08-17T06:10:32;14.85;;;7.13;;
73382;SDS011;61600;48.126;11.542;2023-08-17T06:12:58;10.27;;;5.97;;
73382;SDS011;61600;48.126;11.542;2023-08-17T06:15:24;8.55;;;5.28;;
73382;SDS011;61600;48.126;11.542;2023-08-17T06:20:16;7.70;;;5.30;;
73382;SDS011;61600;48.126;11.542;2023-08-17T06:22:42;7.82;;;5.32;;
73382;SDS011;61600;48.126;11.542;2023-08-17T06:25:08;8.15;;;5.63;;
73382;SDS011;61600;48.126;11.542;2023-08-17T06:27:35;9.15;;;5.93;;
73382;SDS011;61600;48.126;11.542;2023-08-17T06:30:01;9.27;;;5.80;;
73382;SDS011;61600;48.126;11.542;2023-08-17T06:32:30;8.13;;;5.00;;
73382;SDS011;61600;48.126;11.542;2023-08-17T06:34:56;9.10;;;5.05;;
73382;SDS011;61600;48.126;11.542;2023-08-17T06:37:22;8.02;;;4.85;;
73382;SDS011;61600;48.126;11.542;2023-08-17T06:39:48;9.35;;;4.80;;
73382;SDS011;61600;48.126;11.542;2023-08-17T06:42:15;5.97;;;4.57;;
73382;SDS011;61600;48.126;11.542;2023-08-17T06:44:41;9.15;;;4.95;;
73382;SDS011;61600;48.126;11.542;2023-08-17T06:47:07;6.85;;;5.32;;
73382;SDS011;61600;48.126;11.542;2023-08-17T06:49:34;7.90;;;4.78;;
73382;SDS011;61600;48.126;11.542;2023-08-17T06:52:00;7.97;;;4.63;;
73382;SDS011;61600;48.126;11.542;2023-08-17T06:54:26;8.32;;;5.10;;
73382;SDS011;61600;48.126;11.542;2023-08-17T06:56:52;7.97;;;5.10;;
73382;SDS011;61600;48.126;11.542;2023-08-17T06:59:18;6.70;;;4.60;;
73382;SDS011;61600;48.126;11.542;2023-08-17T07:01:44;9.05;;;6.00;;
73382;SDS011;61600;48.126;11.542;2023-08-17T07:04:09;6.40;;;4.85;;
73382;SDS011;61600;48.126;11.542;2023-08-17T07:06:35;8.55;;;5.47;;
73382;SDS011;61600;48.126;11.542;2023-08-17T07:09:01;9.45;;;5.22;;
73382;SDS011;61600;48.126;11.542;2023-08-17T07:11:29;6.63;;;4.68;;
73382;SDS011;61600;48.126;11.542;2023-08-17T07:13:54;8.00;;;4.97;;
73382;SDS011;61600;48.126;11.542;2023-08-17T07:16:20;7.53;;;4.85;;
73382;SDS011;61600;48.126;11.542;2023-08-17T07:18:46;7.95;;;5.20;;
73382;SDS011;61600;48.126;11.542;2023-08-17T07:21:12;6.90;;;4.72;;
73382;SDS011;61600;48.126;11.542;2023-08-17T07:23:38;7.88;;;5.20;;
73382;SDS011;61600;48.126;11.542;2023-08-17T07:26:03;6.88;;;4.65;;
73382;SDS011;61600;48.126;11.542;2023-08-17T07:28:29;9.32;;;4.90;;
73382;SDS011;61600;48.126;11.542;2023-08-17T07:30:55;9.00;;;4.57;;
73382;SDS011;61600;48.126;11.542;2023-08-17T07:33:21;6.53;;;4.97;;
73382;SDS011;61600;48.126;11.542;2023-08-17T07:35:46;7.28;;;4.70;;
73382;SDS011;61600;48.126;11.542;2023-08-17T07:38:12;10.65;;;5.05;;
73382;SDS011;61600;48.126;11.542;2023-08-17T07:40:41;8.70;;;4.75;;
73382;SDS011;61600;48.126;11.542;2023-08-17T07:43:08;11.23;;;5.15;;
73382;SDS011;61600;48.126;11.542;2023-08-17T07:45:34;7.78;;;4.93;;
73382;SDS011;61600;48.126;11.542;2023-08-17T07:48:00;7.53;;;5.00;;
73382;SDS011;61600;48.126;11.542;2023-08-17T07:50:25;9.07;;;5.28;;
73382;SDS011;61600;48.126;11.542;2023-08-17T07:52:51;10.50;;;5.75;;
73382;SDS011;61600;48.126;11.542;2023-08-17T07:55:17;8.00;;;4.82;;
73382;SDS011;61600;48.126;11.542;2023-08-17T07:57:43;6.85;;;5.28;;
73382;SDS011;61600;48.126;11.542;2023-08-17T08:00:09;8.73;;;4.72;;
73382;SDS011;61600;48.126;11.542;2023-08-17T08:02:35;6.25;;;5.00;;
73382;SDS011;61600;48.126;11.542;2023-08-17T08:05:00;9.38;;;5.65;;
73382;SDS011;61600;48.126;11.542;2023-08-17T08:07:26;7.43;;;4.70;;
73382;SDS011;61600;48.126;11.542;2023-08-17T08:09:52;7.15;;;4.63;;
73382;SDS011;61600;48.126;11.542;2023-08-17T08:12:21;7.60;;;4.50;;
73382;SDS011;61600;48.126;11.542;2023-08-17T08:14:55;7.85;;;5.30;;
73382;SDS011;61600;48.126;11.542;2023-08-17T08:17:20;6.97;;;4.82;;
73382;SDS011;61600;48.126;11.542;2023-08-17T08:19:46;7.43;;;4.50;;
73382;SDS011;61600;48.126;11.542;2023-08-17T08:22:12;7.32;;;4.93;;
73382;SDS011;61600;48.126;11.542;2023-08-17T08:24:37;8.40;;;4.80;;
73382;SDS011;61600;48.126;11.542;2023-08-17T08:27:06;6.53;;;4.75;;
73382;SDS011;61600;48.126;11.542;2023-08-17T08:29:32;7.68;;;4.68;;
73382;SDS011;61600;48.126;11.542;2023-08-17T08:31:59;7.50;;;4.70;;
73382;SDS011;61600;48.126;11.542;2023-08-17T08:34:25;6.15;;;4.35;;
73382;SDS011;61600;48.126;11.542;2023-08-17T08:36:50;5.97;;;4.55;;
73382;SDS011;61600;48.126;11.542;2023-08-17T08:39:16;6.53;;;4.40;;
73382;SDS011;61600;48.126;11.542;2023-08-17T08:41:42;6.78;;;4.70;;
73382;SDS011;61600;48.126;11.542;2023-08-17T08:44:08;6.68;;;4.50;;
73382;SDS011;61600;48.126;11.542;2023-08-17T08:46:33;7.57;;;5.05;;
73382;SDS011;61600;48.126;11.542;2023-08-17T08:49:02;6.50;;;4.70;;
73382;SDS011;61600;48.126;11.542;2023-08-17T08:51:31;6.63;;;4.57;;
73382;SDS011;61600;48.126;11.542;2023-08-17T08:54:01;6.60;;;4.90;;
73382;SDS011;61600;48.126;11.542;2023-08-17T08:56:32;10.65;;;5.18;;
73382;SDS011;61600;48.126;11.542;2023-08-17T08:58:58;12.05;;;4.93;;
73382;SDS011;61600;48.126;11.542;2023-08-17T09:01:27;8.20;;;4.25;;
73382;SDS011;61600;48.126;11.542;2023-08-17T09:03:55;8.77;;;4.40;;
73382;SDS011;61600;48.126;11.542;2023-08-17T09:06:23;6.68;;;4.43;;
73382;SDS011;61600;48.126;11.542;2023-08-17T09:08:51;6.97;;;4.40;;
73382;SDS011;61600;48.126;11.542;2023-08-17T09:11:17;7.15;;;4.15;;
73382;SDS011;61600;48.126;11.542;2023-08-17T09:13:43;7.07;;;3.97;;
73382;SDS011;61600;48.126;11.542;2023-08-17T09:16:09;6.60;;;3.95;;
73382;SDS011;61600;48.126;11.542;2023-08-17T09:18:35;6.60;;;4.88;;
73382;SDS011;61600;48.126;11.542;2023-08-17T09:21:01;5.50;;;4.18;;
73382;SDS011;61600;48.126;11.542;2023-08-17T09:23:27;7.10;;;4.53;;
73382;SDS011;61600;48.126;11.542;2023-08-17T09:25:53;5.47;;;3.83;;
73382;SDS011;61600;48.126;11.542;2023-08-17T09:28:23;6.45;;;3.85;;
73382;SDS011;61600;48.126;11.542;2023-08-17T09:30:59;5.60;;;3.88;;
73382;SDS011;61600;48.126;11.542;2023-08-17T09:33:29;5.85;;;3.80;;
73382;SDS011;61600;48.126;11.542;2023-08-17T09:35:57;4.82;;;3.35;;
73382;SDS011;61600;48.126;11.542;2023-08-17T09:38:23;5.68;;;3.72;;
73382;SDS011;61600;48.126;11.542;2023-08-17T09:43:15;6.55;;;3.80;;
73382;SDS011;61600;48.126;11.542;2023-08-17T09:45:43;6.35;;;3.95;;
73382;SDS011;61600;48.126;11.542;2023-08-17T09:48:11;6.43;;;3.47;;
73382;SDS011;61600;48.126;11.542;2023-08-17T09:50:41;5.40;;;3.30;;
73382;SDS011;61600;48.126;11.542;2023-08-17T09:53:12;4.72;;;3.65;;
73382;SDS011;61600;48.126;11.542;2023-08-17T09:55:42;7.20;;;3.72;;
73382;SDS011;61600;48.126;11.542;2023-08-17T09:58:09;5.00;;;3.75;;
73382;SDS011;61600;48.126;11.542;2023-08-17T10:00:35;5.22;;;4.05;;
73382;SDS011;61600;48.126;11.542;2023-08-17T10:03:03;6.72;;;4.00;;
73382;SDS011;61600;48.126;11.542;2023-08-17T10:05:31;6.60;;;4.15;;
73382;SDS011;61600;48.126;11.542;2023-08-17T10:08:03;5.72;;;4.00;;
73382;SDS011;61600;48.126;11.542;2023-08-17T10:10:32;5.10;;;3.90;;
73382;SDS011;61600;48.126;11.542;2023-08-17T10:13:03;5.60;;;3.70;;
73382;SDS011;61600;48.126;11.542;2023-08-17T10:21:10;4.60;;;3.45;;
73382;SDS011;61600;48.126;11.542;2023-08-17T10:23:43;8.38;;;4.40;;
73382;SDS011;61600;48.126;11.542;2023-08-17T10:26:09;4.72;;;3.60;;
73382;SDS011;61600;48.126;11.542;2023-08-17T10:31:01;6.28;;;4.40;;
73382;SDS011;61600;48.126;11.542;2023-08-17T10:33:27;6.93;;;4.28;;
73382;SDS011;61600;48.126;11.542;2023-08-17T10:35:54;5.80;;;3.78;;
73382;SDS011;61600;48.126;11.542;2023-08-17T10:38:21;5.60;;;3.55;;
73382;SDS011;61600;48.126;11.542;2023-08-17T10:40:50;7.90;;;4.03;;
73382;SDS011;61600;48.126;11.542;2023-08-17T10:43:34;7.40;;;4.00;;
73382;SDS011;61600;48.126;11.542;2023-08-17T10:46:15;7.15;;;4.10;;
73382;SDS011;61600;48.126;11.542;2023-08-17T10:48:44;5.63;;;3.88;;
73382;SDS011;61600;48.126;11.542;2023-08-17T10:51:10;4.65;;;3.60;;
73382;SDS011;61600;48.126;11.542;2023-08-17T10:53:39;4.68;;;3.90;;
73382;SDS011;61600;48.126;11.542;2023-08-17T10:56:10;5.95;;;3.92;;
73382;SDS011;61600;48.126;11.542;2023-08-17T10:58:38;5.45;;;3.63;;
73382;SDS011;61600;48.126;11.542;2023-08-17T11:01:03;5.72;;;4.65;;
73382;SDS011;61600;48.126;11.542;2023-08-17T11:03:30;4.82;;;3.80;;
73382;SDS011;61600;48.126;11.542;2023-08-17T11:05:56;8.55;;;4.05;;
73382;SDS011;61600;48.126;11.542;2023-08-17T11:08:31;7.10;;;4.00;;
73382;SDS011;61600;48.126;11.542;2023-08-17T11:11:13;4.97;;;3.72;;
73382;SDS011;61600;48.126;11.542;2023-08-17T11:13:40;5.90;;;4.07;;
73382;SDS011;61600;48.126;11.542;2023-08-17T11:16:08;4.88;;;3.63;;
73382;SDS011;61600;48.126;11.542;2023-08-17T11:18:34;5.78;;;4.28;;
73382;SDS011;61600;48.126;11.542;2023-08-17T11:21:07;5.65;;;4.18;;
73382;SDS011;61600;48.126;11.542;2023-08-17T11:23:34;7.35;;;4.10;;
73382;SDS011;61600;48.126;11.542;2023-08-17T11:26:01;5.50;;;3.85;;
73382;SDS011;61600;48.126;11.542;2023-08-17T11:28:31;4.78;;;3.60;;
73382;SDS011;61600;48.126;11.542;2023-08-17T11:31:05;9.88;;;3.95;;
73382;SDS011;61600;48.126;11.542;2023-08-17T11:33:34;5.88;;;3.15;;
73382;SDS011;61600;48.126;11.542;2023-08-17T11:36:03;5.90;;;3.78;;
73382;SDS011;61600;48.126;11.542;2023-08-17T11:38:33;5.22;;;3.17;;
73382;SDS011;61600;48.126;11.542;2023-08-17T11:41:00;4.22;;;3.50;;
73382;SDS011;61600;48.126;11.542;2023-08-17T11:43:29;6.10;;;3.88;;
73382;SDS011;61600;48.126;11.542;2023-08-17T11:45:56;6.75;;;4.07;;
73382;SDS011;61600;48.126;11.542;2023-08-17T11:48:23;7.18;;;4.57;;
73382;SDS011;61600;48.126;11.542;2023-08-17T11:50:50;7.43;;;4.13;;
73382;SDS011;61600;48.126;11.542;2023-08-17T11:53:16;9.38;;;4.68;;
73382;SDS011;61600;48.126;11.542;2023-08-17T11:55:42;6.50;;;4.18;;
73382;SDS011;61600;48.126;11.542;2023-08-17T11:58:08;5.35;;;4.03;;
73382;SDS011;61600;48.126;11.542;2023-08-17T12:00:41;6.50;;;4.00;;
73382;SDS011;61600;48.126;11.542;2023-08-17T12:03:15;6.97;;;3.92;;
73382;SDS011;61600;48.126;11.542;2023-08-17T12:05:41;7.53;;;4.43;;
73382;SDS011;61600;48.126;11.542;2023-08-17T12:08:09;7.13;;;4.00;;
73382;SDS011;61600;48.126;11.542;2023-08-17T12:10:36;5.65;;;3.92;;
73382;SDS011;61600;48.126;11.542;2023-08-17T12:13:03;5.80;;;4.00;;
73382;SDS011;61600;48.126;11.542;2023-08-17T12:15:32;5.65;;;4.05;;
73382;SDS011;61600;48.126;11.542;2023-08-17T12:18:02;5.40;;;4.07;;
73382;SDS011;61600;48.126;11.542;2023-08-17T12:20:29;5.55;;;4.07;;
73382;SDS011;61600;48.126;11.542;2023-08-17T12:22:57;5.55;;;3.70;;
73382;SDS011;61600;48.126;11.542;2023-08-17T12:25:25;5.72;;;4.13;;
73382;SDS011;61600;48.126;11.542;2023-08-17T12:27:51;6.18;;;3.97;;
73382;SDS011;61600;48.126;11.542;2023-08-17T12:30:23;5.40;;;3.80;;
73382;SDS011;61600;48.126;11.542;2023-08-17T12:32:58;4.93;;;3.95;;
73382;SDS011;61600;48.126;11.542;2023-08-17T12:35:25;6.07;;;3.97;;
73382;SDS011;61600;48.126;11.542;2023-08-17T12:37:53;5.57;;;3.72;;
73382;SDS011;61600;48.126;11.542;2023-08-17T12:40:19;5.10;;;3.83;;
73382;SDS011;61600;48.126;11.542;2023-08-17T12:42:46;4.57;;;3.88;;
73382;SDS011;61600;48.126;11.542;2023-08-17T12:45:13;7.82;;;4.03;;
73382;SDS011;61600;48.126;11.542;2023-08-17T12:47:39;6.22;;;4.35;;
73382;SDS011;61600;48.126;11.542;2023-08-17T12:50:05;5.57;;;4.03;;
73382;SDS011;61600;48.126;11.542;2023-08-17T12:52:31;7.85;;;4.30;;
73382;SDS011;61600;48.126;11.542;2023-08-17T12:54:57;6.00;;;3.92;;
73382;SDS011;61600;48.126;11.542;2023-08-17T12:57:23;6.10;;;4.10;;
73382;SDS011;61600;48.126;11.542;2023-08-17T12:59:49;6.45;;;4.28;;
73382;SDS011;61600;48.126;11.542;2023-08-17T13:02:14;6.38;;;4.03;;
73382;SDS011;61600;48.126;11.542;2023-08-17T13:04:41;5.35;;;3.95;;
73382;SDS011;61600;48.126;11.542;2023-08-17T13:09:38;4.93;;;3.78;;
73382;SDS011;61600;48.126;11.542;2023-08-17T13:12:04;5.43;;;3.35;;
73382;SDS011;61600;48.126;11.542;2023-08-17T13:14:30;5.03;;;3.53;;
73382;SDS011;61600;48.126;11.542;2023-08-17T13:16:55;5.90;;;3.90;;
73382;SDS011;61600;48.126;11.542;2023-08-17T13:19:21;4.75;;;3.80;;
73382;SDS011;61600;48.126;11.542;2023-08-17T13:21:47;4.63;;;3.58;;
73382;SDS011;61600;48.126;11.542;2023-08-17T13:24:13;7.18;;;3.65;;
73382;SDS011;61600;48.126;11.542;2023-08-17T13:26:39;4.60;;;3.53;;
73382;SDS011;61600;48.126;11.542;2023-08-17T13:29:05;4.85;;;3.80;;
73382;SDS011;61600;48.126;11.542;2023-08-17T13:31:31;6.05;;;3.78;;
73382;SDS011;61600;48.126;11.542;2023-08-17T13:33:57;7.40;;;3.38;;
73382;SDS011;61600;48.126;11.542;2023-08-17T13:36:22;4.55;;;3.50;;
73382;SDS011;61600;48.126;11.542;2023-08-17T13:38:50;8.20;;;3.67;;
73382;SDS011;61600;48.126;11.542;2023-08-17T13:41:16;5.28;;;4.07;;
73382;SDS011;61600;48.126;11.542;2023-08-17T13:43:42;4.18;;;3.45;;
73382;SDS011;61600;48.126;11.542;2023-08-17T13:46:08;4.88;;;3.80;;
73382;SDS011;61600;48.126;11.542;2023-08-17T13:48:34;6.18;;;3.63;;
73382;SDS011;61600;48.126;11.542;2023-08-17T13:50:59;5.90;;;4.25;;
73382;SDS011;61600;48.126;11.542;2023-08-17T13:53:25;4.60;;;3.75;;
73382;SDS011;61600;48.126;11.542;2023-08-17T13:55:51;4.38;;;3.80;;
73382;SDS011;61600;48.126;11.542;2023-08-17T13:58:17;5.97;;;3.63;;
73382;SDS011;61600;48.126;11.542;2023-08-17T14:00:43;5.25;;;3.58;;
73382;SDS011;61600;48.126;11.542;2023-08-17T14:03:08;6.60;;;4.43;;
73382;SDS011;61600;48.126;11.542;2023-08-17T14:05:34;5.90;;;3.60;;
73382;SDS011;61600;48.126;11.542;2023-08-17T14:08:00;5.05;;;3.90;;
73382;SDS011;61600;48.126;11.542;2023-08-17T14:10:26;9.15;;;4.07;;
73382;SDS011;61600;48.126;11.542;2023-08-17T14:12:51;5.00;;;4.00;;
73382;SDS011;61600;48.126;11.542;2023-08-17T14:15:17;5.25;;;4.30;;
73382;SDS011;61600;48.126;11.542;2023-08-17T14:17:43;7.05;;;4.30;;
73382;SDS011;61600;48.126;11.542;2023-08-17T14:20:09;5.72;;;4.00;;
73382;SDS011;61600;48.126;11.542;2023-08-17T14:22:35;6.30;;;4.35;;
73382;SDS011;61600;48.126;11.542;2023-08-17T14:25:01;5.63;;;4.30;;
73382;SDS011;61600;48.126;11.542;2023-08-17T14:27:28;9.25;;;4.75;;
73382;SDS011;61600;48.126;11.542;2023-08-17T14:29:54;8.68;;;5.03;;
73382;SDS011;61600;48.126;11.542;2023-08-17T14:32:21;6.85;;;4.85;;
73382;SDS011;61600;48.126;11.542;2023-08-17T14:34:46;7.15;;;4.78;;
73382;SDS011;61600;48.126;11.542;2023-08-17T14:37:12;8.90;;;5.13;;
73382;SDS011;61600;48.126;11.542;2023-08-17T14:39:38;7.03;;;5.13;;
73382;SDS011;61600;48.126;11.542;2023-08-17T14:42:04;7.15;;;5.20;;
73382;SDS011;61600;48.126;11.542;2023-08-17T14:44:29;7.45;;;5.18;;
73382;SDS011;61600;48.126;11.542;2023-08-17T14:46:55;6.55;;;4.97;;
73382;SDS011;61600;48.126;11.542;2023-08-17T14:49:21;8.13;;;4.70;;
73382;SDS011;61600;48.126;11.542;2023-08-17T14:51:47;8.80;;;4.70;;
73382;SDS011;61600;48.126;11.542;2023-08-17T14:54:13;7.82;;;5.00;;